Time;durP1;ratioP1;P1;durP2;ratioP2;P2;SDS_P1;SDS_P2;PMS_P1;PMS_P2;Temp;Humidity;BMP_temperature;BMP_pressure;BME280_temperature;BME280_humidity;BME280_pressure;Samples;Min_cycle;Max_cycle;Signal;HPM_P1;HPM_P2
2023/03/18 00:00:49;;;;;;;4.07;2.60;;;12.70;99.90;;;;;;5014869;28;20652;-82
2023/03/18 00:03:14;;;;;;;3.17;2.10;;;12.60;1.00;;;;;;5046808;28;20525;-81
2023/03/18 00:05:40;;;;;;;3.40;2.40;;;12.60;1.00;;;;;;5014814;28;20593;-81
2023/03/18 00:08:08;;;;;;;4.40;2.37;;;12.40;54.20;;;;;;5046695;28;20184;-82
2023/03/18 00:10:39;;;;;;;4.53;2.77;;;12.30;99.90;;;;;;5046225;28;20437;-82
2023/03/18 00:13:04;;;;;;;3.57;2.90;;;12.20;1.00;;;;;;5046342;28;20445;-83
2023/03/18 00:15:31;;;;;;;3.37;2.33;;;12.00;1.00;;;;;;5014374;28;20421;-83
2023/03/18 00:18:01;;;;;;;4.23;2.70;;;12.00;99.90;;;;;;5029919;28;20417;-83
2023/03/18 00:20:46;;;;;;;5.10;2.77;;;12.00;1.00;;;;;;5014258;28;20875;-83
2023/03/18 00:23:12;;;;;;;6.80;2.10;;;11.90;99.90;;;;;;5046488;28;20441;-81
2023/03/18 00:25:38;;;;;;;4.60;2.53;;;11.80;99.90;;;;;;5045711;28;20475;-81
2023/03/18 00:28:05;;;;;;;5.97;2.73;;;11.80;1.00;;;;;;4993667;28;20525;-81
2023/03/18 00:30:32;;;;;;;5.30;3.10;;;11.90;24.20;;;;;;4993552;28;20428;-81
2023/03/18 00:32:57;;;;;;;6.30;2.70;;;11.90;81.30;;;;;;4994827;28;20425;-81
2023/03/18 00:35:26;;;;;;;5.70;2.60;;;12.00;99.90;;;;;;4993515;28;20759;-81
2023/03/18 00:37:54;;;;;;;3.63;2.20;;;12.00;99.90;;;;;;4993346;28;20420;-81
2023/03/18 00:40:26;;;;;;;3.03;2.40;;;12.00;99.90;;;;;;4993061;28;20493;-80
2023/03/18 00:42:56;;;;;;;4.33;2.70;;;11.90;1.00;;;;;;4993453;28;20854;-81
2023/03/18 00:45:23;;;;;;;3.93;2.47;;;11.90;1.00;;;;;;4993315;28;20972;-81
2023/03/18 00:47:49;;;;;;;3.87;2.00;;;11.80;99.90;;;;;;4993261;28;20412;-83
2023/03/18 00:50:16;;;;;;;3.43;2.30;;;11.80;98.90;;;;;;4993124;28;20504;-82
2023/03/18 00:52:42;;;;;;;4.10;2.07;;;11.80;99.90;;;;;;4993168;28;20425;-81
2023/03/18 00:55:09;;;;;;;2.50;1.90;;;11.50;99.90;;;;;;4992740;28;20769;-81
2023/03/18 00:57:36;;;;;;;2.60;1.80;;;11.70;99.90;;;;;;4994306;28;20415;-81
2023/03/18 01:00:08;;;;;;;3.17;2.50;;;11.70;1.00;;;;;;4993082;28;20421;-81
2023/03/18 01:02:34;;;;;;;3.90;2.93;;;11.50;1.00;;;;;;4993055;28;20512;-81
2023/03/18 01:05:00;;;;;;;4.60;1.87;;;11.50;1.00;;;;;;4994095;28;20429;-82
2023/03/18 01:07:26;;;;;;;5.07;2.57;;;11.60;1.00;;;;;;4994155;28;20473;-82
2023/03/18 01:09:51;;;;;;;4.67;2.07;;;11.60;1.00;;;;;;4992448;28;20910;-81
2023/03/18 01:12:18;;;;;;;6.83;1.80;;;11.50;1.00;;;;;;5006285;28;20353;-82
2023/03/18 01:14:43;;;;;;;3.90;2.57;;;11.40;1.00;;;;;;5010673;28;20709;-82
2023/03/18 01:17:12;;;;;;;4.13;1.70;;;11.30;1.00;;;;;;5009021;28;20521;-82
2023/03/18 01:19:38;;;;;;;2.73;1.70;;;11.40;1.00;;;;;;4993732;28;20182;-82
2023/03/18 01:22:11;;;;;;;2.00;1.00;;;11.50;1.00;;;;;;5008304;28;20472;-82
2023/03/18 01:24:43;;;;;;;3.10;1.17;;;11.50;1.00;;;;;;4992657;28;20265;-82
2023/03/18 01:27:11;;;;;;;3.90;1.80;;;11.70;1.00;;;;;;5008787;28;21046;-82
2023/03/18 01:29:37;;;;;;;3.73;2.30;;;11.80;1.00;;;;;;4993690;28;20419;-82
2023/03/18 01:32:05;;;;;;;3.23;1.50;;;11.90;1.00;;;;;;4952338;28;20814;-82
2023/03/18 01:34:30;;;;;;;2.90;1.47;;;12.00;1.00;;;;;;4992340;28;20437;-81
2023/03/18 01:37:00;;;;;;;5.63;1.70;;;12.10;1.00;;;;;;4998981;28;20535;-82
2023/03/18 01:39:25;;;;;;;4.20;2.10;;;12.30;1.00;;;;;;5011527;28;20179;-82
2023/03/18 01:41:52;;;;;;;3.87;2.00;;;12.30;1.00;;;;;;5028203;28;20438;-82
2023/03/18 01:44:21;;;;;;;3.27;2.10;;;12.30;1.00;;;;;;5012151;28;20191;-82
2023/03/18 01:46:51;;;;;;;3.77;1.80;;;12.30;1.00;;;;;;5011757;28;20478;-81
2023/03/18 01:49:59;;;;;;;4.43;2.97;;;12.40;1.00;;;;;;5011724;28;20421;-80
2023/03/18 01:52:28;;;;;;;3.07;1.80;;;12.20;1.00;;;;;;5028328;28;20750;-80
2023/03/18 01:55:20;;;;;;;2.83;1.47;;;12.30;1.00;;;;;;5013130;28;20448;-81
2023/03/18 01:57:50;;;;;;;3.80;2.00;;;12.10;1.00;;;;;;5011805;28;20425;-82
2023/03/18 02:00:20;;;;;;;3.93;2.17;;;12.10;1.00;;;;;;5011787;28;20410;-82
2023/03/18 02:02:54;;;;;;;4.37;2.87;;;12.10;1.00;;;;;;5013365;28;20561;-82
2023/03/18 02:05:23;;;;;;;5.20;2.20;;;12.00;1.00;;;;;;5012981;28;20410;-81
2023/03/18 02:07:52;;;;;;;3.23;1.80;;;11.90;1.00;;;;;;5013035;28;20416;-82
2023/03/18 02:10:27;;;;;;;2.80;1.30;;;11.90;1.00;;;;;;5012611;28;20495;-82
2023/03/18 02:13:15;;;;;;;4.60;2.10;;;11.90;1.00;;;;;;5011729;28;20997;-82
2023/03/18 02:15:49;;;;;;;3.17;2.07;;;11.90;1.00;;;;;;5013220;28;20475;-82
2023/03/18 02:18:37;;;;;;;4.37;2.13;;;11.90;1.00;;;;;;5011378;28;20450;-82
2023/03/18 02:21:25;;;;;;;3.67;1.87;;;11.80;1.00;;;;;;5013525;28;21050;-82
2023/03/18 02:24:30;;;;;;;4.73;2.40;;;11.80;1.00;;;;;;5012810;28;20432;-82
2023/03/18 02:26:59;;;;;;;3.53;2.13;;;11.70;1.00;;;;;;5011582;28;20478;-81
2023/03/18 02:29:31;;;;;;;3.53;1.60;;;11.60;1.00;;;;;;5011804;28;20436;-81
2023/03/18 02:32:08;;;;;;;2.30;1.60;;;11.70;1.00;;;;;;5012939;28;20428;-81
2023/03/18 02:34:36;;;;;;;5.57;2.20;;;11.70;1.00;;;;;;5007279;28;20487;-81
2023/03/18 02:37:45;;;;;;;3.10;1.80;;;11.80;1.00;;;;;;5014517;28;20435;-82
2023/03/18 02:40:30;;;;;;;3.50;2.40;;;11.80;1.00;;;;;;5031144;28;20424;-81
2023/03/18 02:43:32;;;;;;;2.37;1.50;;;11.90;1.00;;;;;;4980849;28;20461;-81
2023/03/18 02:46:33;;;;;;;3.03;1.60;;;12.00;1.00;;;;;;4998314;28;20537;-81
2023/03/18 02:49:03;;;;;;;2.70;1.80;;;12.00;1.00;;;;;;5015945;28;20521;-81
2023/03/18 02:51:43;;;;;;;2.50;1.77;;;12.10;1.00;;;;;;5014527;28;20429;-81
2023/03/18 02:54:14;;;;;;;4.47;2.10;;;12.20;1.00;;;;;;5014604;28;20425;-82
2023/03/18 02:57:01;;;;;;;2.80;1.70;;;12.20;1.00;;;;;;5029257;28;20584;-82
2023/03/18 02:59:28;;;;;;;2.23;0.87;;;12.30;1.00;;;;;;5028554;28;20418;-81
2023/03/18 03:01:54;;;;;;;3.43;2.10;;;12.30;1.00;;;;;;5014512;28;20429;-81
2023/03/18 03:04:24;;;;;;;3.60;1.83;;;12.40;1.00;;;;;;5015883;28;20444;-81
2023/03/18 03:06:51;;;;;;;3.93;1.53;;;12.40;1.00;;;;;;5015788;28;20570;-80
2023/03/18 03:09:20;;;;;;;2.80;1.90;;;12.50;1.00;;;;;;5015376;28;20405;-80
2023/03/18 03:11:47;;;;;;;3.20;2.00;;;12.50;1.00;;;;;;5015819;28;20414;-81
2023/03/18 03:14:13;;;;;;;2.97;1.90;;;12.50;1.00;;;;;;5014515;28;20780;-81
2023/03/18 03:16:39;;;;;;;2.70;2.27;;;12.50;1.00;;;;;;5014319;28;20469;-80
2023/03/18 03:19:05;;;;;;;5.10;2.60;;;12.50;1.00;;;;;;5014432;28;20410;-81
2023/03/18 03:21:34;;;;;;;2.70;2.20;;;12.60;1.00;;;;;;5013413;28;20306;-81
2023/03/18 03:24:03;;;;;;;3.43;1.70;;;12.60;1.00;;;;;;5011350;28;20414;-81
2023/03/18 03:26:30;;;;;;;2.90;1.87;;;12.70;1.00;;;;;;5012815;28;20857;-81
2023/03/18 03:28:55;;;;;;;4.80;1.70;;;12.60;1.00;;;;;;5012805;28;20410;-81
2023/03/18 03:31:22;;;;;;;2.20;1.40;;;12.60;1.00;;;;;;5012270;28;20491;-82
2023/03/18 03:33:48;;;;;;;4.10;2.30;;;12.60;1.00;;;;;;5012291;28;20169;-82
2023/03/18 03:36:16;;;;;;;3.50;2.17;;;12.60;1.00;;;;;;5014004;28;20421;-81
2023/03/18 03:38:42;;;;;;;4.50;2.00;;;12.70;1.00;;;;;;5010043;28;20422;-81
2023/03/18 03:41:10;;;;;;;3.13;2.00;;;12.60;1.00;;;;;;5014023;28;20422;-81
2023/03/18 03:43:39;;;;;;;3.30;1.50;;;12.50;1.00;;;;;;5013981;28;20906;-81
2023/03/18 03:46:06;;;;;;;2.60;1.80;;;12.50;1.00;;;;;;5013487;28;20470;-81
2023/03/18 03:48:32;;;;;;;4.00;1.57;;;12.30;1.00;;;;;;5012155;28;20526;-81
2023/03/18 03:50:58;;;;;;;5.10;2.60;;;12.30;1.00;;;;;;5012533;28;20465;-82
2023/03/18 03:53:24;;;;;;;3.63;2.30;;;12.40;1.00;;;;;;5028454;28;20459;-82
2023/03/18 03:55:51;;;;;;;2.43;1.23;;;12.50;1.00;;;;;;5012596;28;20206;-81
2023/03/18 03:58:17;;;;;;;3.93;1.33;;;12.40;1.00;;;;;;5013701;28;20428;-80
2023/03/18 04:00:42;;;;;;;1.70;1.13;;;12.40;1.00;;;;;;5013644;28;20409;-80
2023/03/18 04:03:08;;;;;;;2.97;1.50;;;12.40;1.00;;;;;;5013632;28;20633;-80
2023/03/18 04:05:33;;;;;;;5.33;3.37;;;12.30;1.00;;;;;;5013435;28;20313;-80
2023/03/18 04:08:00;;;;;;;3.90;1.60;;;12.30;1.00;;;;;;5013533;28;20174;-80
2023/03/18 04:10:27;;;;;;;2.90;1.53;;;12.30;1.00;;;;;;5013234;28;20172;-80
2023/03/18 04:12:53;;;;;;;2.50;1.63;;;12.30;1.00;;;;;;5013484;28;20422;-80
2023/03/18 04:15:20;;;;;;;4.50;2.67;;;12.40;1.00;;;;;;5013417;28;20840;-80
2023/03/18 04:17:47;;;;;;;4.43;2.00;;;12.30;1.00;;;;;;5013317;28;20415;-80
2023/03/18 04:20:13;;;;;;;4.33;2.30;;;12.30;1.00;;;;;;5013280;28;20444;-81
2023/03/18 04:22:40;;;;;;;2.90;2.10;;;12.30;1.00;;;;;;5013141;28;20968;-81
2023/03/18 04:25:06;;;;;;;4.30;3.03;;;12.30;1.00;;;;;;5012862;28;20410;-81
2023/03/18 04:27:32;;;;;;;2.47;1.73;;;12.30;1.00;;;;;;4990013;28;20474;-80
2023/03/18 04:29:59;;;;;;;7.77;3.13;;;12.20;1.00;;;;;;4998194;28;20757;-81
2023/03/18 04:32:24;;;;;;;3.80;2.43;;;12.20;1.00;;;;;;5014460;28;20430;-81
2023/03/18 04:34:53;;;;;;;3.63;2.43;;;12.10;1.00;;;;;;5014338;28;20432;-81
2023/03/18 04:37:19;;;;;;;4.00;2.20;;;12.10;1.00;;;;;;5014410;28;20175;-81
2023/03/18 04:39:47;;;;;;;6.03;2.43;;;12.10;1.00;;;;;;5014017;28;20511;-81
2023/03/18 04:42:13;;;;;;;4.67;2.70;;;12.10;1.00;;;;;;5014252;28;20911;-80
2023/03/18 04:44:38;;;;;;;4.60;1.93;;;12.20;1.00;;;;;;5014227;28;20417;-81
2023/03/18 04:47:04;;;;;;;4.40;2.17;;;12.10;1.00;;;;;;5014060;28;20586;-80
2023/03/18 04:49:30;;;;;;;4.90;2.20;;;12.10;1.00;;;;;;4996649;28;20212;-81
2023/03/18 04:51:55;;;;;;;4.50;2.17;;;12.10;7.20;;;;;;5014177;28;20494;-83
2023/03/18 04:54:21;;;;;;;7.57;4.10;;;12.10;6.70;;;;;;5013688;28;20173;-80
2023/03/18 04:56:46;;;;;;;3.97;2.53;;;12.10;28.20;;;;;;5014064;28;20184;-81
2023/03/18 04:59:12;;;;;;;5.30;3.70;;;12.10;64.00;;;;;;5013240;28;20182;-81
2023/03/18 05:01:38;;;;;;;6.00;3.30;;;12.10;43.60;;;;;;5013812;28;20618;-80
2023/03/18 05:04:05;;;;;;;3.60;2.80;;;12.10;40.90;;;;;;5013901;28;20434;-80
2023/03/18 05:06:40;;;;;;;3.30;2.80;;;12.00;27.50;;;;;;5029022;28;20670;-81
2023/03/18 05:09:05;;;;;;;3.80;2.97;;;12.00;19.50;;;;;;5013520;28;20420;-80
2023/03/18 05:11:32;;;;;;;4.80;3.63;;;11.90;30.80;;;;;;5013691;28;20404;-80
2023/03/18 05:13:57;;;;;;;7.00;3.70;;;11.70;69.00;;;;;;5013681;28;20185;-80
2023/03/18 05:16:25;;;;;;;7.20;3.33;;;11.70;99.90;;;;;;5028627;28;20785;-81
2023/03/18 05:18:51;;;;;;;5.50;3.57;;;11.60;99.90;;;;;;5012419;28;20182;-81
2023/03/18 05:21:17;;;;;;;6.70;3.63;;;11.50;99.90;;;;;;5013452;28;20812;-81
2023/03/18 05:23:43;;;;;;;5.70;3.53;;;11.50;99.90;;;;;;5028249;28;20514;-80
2023/03/18 05:26:10;;;;;;;8.83;4.20;;;11.50;99.90;;;;;;5013381;28;20617;-81
2023/03/18 05:28:37;;;;;;;7.53;4.80;;;11.50;99.90;;;;;;5012279;28;20181;-80
2023/03/18 05:31:02;;;;;;;5.70;3.73;;;11.50;99.90;;;;;;5028712;28;20410;-81
2023/03/18 05:33:28;;;;;;;5.93;4.17;;;11.50;99.90;;;;;;5013422;28;20493;-81
2023/03/18 05:35:54;;;;;;;7.07;4.20;;;11.40;99.90;;;;;;5011951;28;20414;-81
2023/03/18 05:38:20;;;;;;;7.03;5.13;;;11.40;99.90;;;;;;5027842;28;20246;-81
2023/03/18 05:40:45;;;;;;;7.03;4.00;;;11.40;99.90;;;;;;5028390;28;20204;-81
2023/03/18 05:43:11;;;;;;;5.83;3.70;;;11.40;99.90;;;;;;5028354;28;20593;-80
2023/03/18 05:45:37;;;;;;;8.77;6.10;;;11.50;99.90;;;;;;5011847;28;20714;-81
2023/03/18 05:48:03;;;;;;;7.50;4.47;;;11.50;99.90;;;;;;5028209;28;20245;-80
2023/03/18 05:50:40;;;;;;;6.90;4.33;;;11.50;99.90;;;;;;5028045;28;20427;-81
2023/03/18 05:53:07;;;;;;;5.80;3.20;;;11.50;99.90;;;;;;5012833;28;20793;-81
2023/03/18 05:55:34;;;;;;;6.17;3.57;;;11.40;99.90;;;;;;5012072;28;20411;-80
2023/03/18 05:58:01;;;;;;;5.37;3.83;;;11.30;99.90;;;;;;5013070;28;20409;-81
2023/03/18 06:00:30;;;;;;;8.10;3.90;;;11.20;99.90;;;;;;5011891;28;20428;-80
2023/03/18 06:02:58;;;;;;;5.10;3.47;;;11.20;99.90;;;;;;5013087;28;20417;-81
2023/03/18 06:05:25;;;;;;;7.50;4.40;;;11.20;99.90;;;;;;5028253;28;20427;-80
2023/03/18 06:07:51;;;;;;;6.53;3.80;;;11.10;99.90;;;;;;5011348;28;20482;-80
2023/03/18 06:10:17;;;;;;;6.13;3.73;;;11.10;99.90;;;;;;5028170;28;20426;-80
2023/03/18 06:12:43;;;;;;;6.93;3.80;;;11.20;99.90;;;;;;5015804;28;20426;-80
2023/03/18 06:15:10;;;;;;;6.87;4.03;;;11.20;99.90;;;;;;5017047;28;20219;-81
2023/03/18 06:17:37;;;;;;;6.40;4.63;;;11.20;99.90;;;;;;5016841;28;20414;-81
2023/03/18 06:20:05;;;;;;;6.50;4.37;;;11.20;99.90;;;;;;4980332;28;20466;-80
2023/03/18 06:22:31;;;;;;;9.03;4.13;;;11.20;99.90;;;;;;4992071;28;20531;-82
2023/03/18 06:24:57;;;;;;;7.97;4.60;;;11.20;99.90;;;;;;4996877;28;20458;-80
2023/03/18 06:27:23;;;;;;;6.90;4.70;;;11.20;99.90;;;;;;4996909;28;20476;-80
2023/03/18 06:29:48;;;;;;;8.30;4.53;;;11.00;99.90;;;;;;4997026;28;20748;-81
2023/03/18 06:32:14;;;;;;;7.20;5.00;;;11.00;99.90;;;;;;4996990;28;20178;-80
2023/03/18 06:34:40;;;;;;;6.93;4.83;;;11.00;99.90;;;;;;4997028;28;20170;-79
2023/03/18 06:37:06;;;;;;;8.10;4.50;;;11.10;99.90;;;;;;4997034;28;20650;-80
2023/03/18 06:39:33;;;;;;;9.67;4.73;;;11.20;99.90;;;;;;4996746;28;20466;-80
2023/03/18 06:41:59;;;;;;;9.60;4.43;;;11.20;99.90;;;;;;4996907;28;20412;-81
2023/03/18 06:44:25;;;;;;;11.00;6.03;;;11.30;99.90;;;;;;4996948;28;20443;-80
2023/03/18 06:46:51;;;;;;;11.60;5.23;;;11.30;99.90;;;;;;4996651;28;20475;-81
2023/03/18 06:49:17;;;;;;;11.87;5.93;;;11.40;99.90;;;;;;4996704;28;20416;-82
2023/03/18 06:51:42;;;;;;;7.07;5.60;;;11.40;99.90;;;;;;4995482;28;20814;-83
2023/03/18 06:54:09;;;;;;;12.83;5.30;;;11.50;99.90;;;;;;4996378;28;20528;-81
2023/03/18 06:56:40;;;;;;;9.53;6.00;;;11.50;99.90;;;;;;4996719;28;20182;-81
2023/03/18 06:59:08;;;;;;;6.97;4.97;;;11.70;99.90;;;;;;4996628;28;20423;-80
2023/03/18 07:01:34;;;;;;;10.20;5.13;;;11.70;99.90;;;;;;4996597;28;20417;-81
2023/03/18 07:04:01;;;;;;;6.97;5.23;;;11.70;99.90;;;;;;5011602;28;20426;-81
2023/03/18 07:06:27;;;;;;;9.30;5.57;;;11.80;99.90;;;;;;4996348;28;20469;-81
2023/03/18 07:08:53;;;;;;;8.27;5.50;;;11.80;99.90;;;;;;4996023;28;20407;-81
2023/03/18 07:11:19;;;;;;;8.63;5.43;;;11.90;99.90;;;;;;4996426;28;20174;-81
2023/03/18 07:13:45;;;;;;;8.77;6.10;;;11.90;99.90;;;;;;4996370;28;20472;-81
2023/03/18 07:16:10;;;;;;;10.60;6.30;;;11.90;99.90;;;;;;4996211;28;20706;-83
2023/03/18 07:18:36;;;;;;;7.60;5.83;;;12.00;99.90;;;;;;4996232;28;20170;-82
2023/03/18 07:21:03;;;;;;;9.43;6.00;;;12.00;99.90;;;;;;4995975;28;20221;-82
2023/03/18 07:23:28;;;;;;;8.70;5.77;;;12.10;99.90;;;;;;4993555;28;20499;-82
2023/03/18 07:25:54;;;;;;;9.90;6.50;;;12.10;99.90;;;;;;4995913;28;20462;-81
2023/03/18 07:28:19;;;;;;;10.23;7.00;;;12.20;99.90;;;;;;4995994;28;20228;-81
2023/03/18 07:30:45;;;;;;;9.43;6.60;;;12.20;99.90;;;;;;4996018;28;20177;-81
2023/03/18 07:33:11;;;;;;;11.43;6.50;;;12.40;99.90;;;;;;4995948;28;20217;-81
2023/03/18 07:35:39;;;;;;;9.33;7.00;;;12.40;99.90;;;;;;4995894;28;20418;-81
2023/03/18 07:38:05;;;;;;;8.40;5.13;;;12.50;99.90;;;;;;4995472;28;20166;-83
2023/03/18 07:40:31;;;;;;;11.60;7.73;;;12.50;99.90;;;;;;4995877;28;20418;-82
2023/03/18 07:42:56;;;;;;;10.07;6.60;;;12.80;99.90;;;;;;4995727;28;20773;-82
2023/03/18 07:45:22;;;;;;;8.30;6.30;;;12.90;99.90;;;;;;4995595;28;20689;-83
2023/03/18 07:47:48;;;;;;;8.37;5.83;;;13.10;99.90;;;;;;4995721;28;20175;-82
2023/03/18 07:50:14;;;;;;;10.03;5.17;;;13.20;99.90;;;;;;4995989;28;20254;-82
2023/03/18 07:52:39;;;;;;;7.80;5.53;;;13.30;99.90;;;;;;4995319;28;20179;-82
2023/03/18 07:55:05;;;;;;;9.40;5.57;;;13.30;99.90;;;;;;4995534;28;20175;-82
2023/03/18 07:57:31;;;;;;;11.73;6.27;;;13.20;99.90;;;;;;4995498;28;20539;-82
2023/03/18 07:59:56;;;;;;;8.07;5.77;;;13.30;99.90;;;;;;4995552;28;20206;-82
2023/03/18 08:02:22;;;;;;;8.77;5.30;;;13.40;99.90;;;;;;4995359;28;20179;-81
2023/03/18 08:04:48;;;;;;;7.50;5.50;;;13.40;99.90;;;;;;4995127;28;20177;-82
2023/03/18 08:07:14;;;;;;;11.27;6.40;;;13.40;99.90;;;;;;4995172;28;20690;-82
2023/03/18 08:09:39;;;;;;;9.43;5.87;;;13.50;99.90;;;;;;4994747;28;20417;-82
2023/03/18 08:12:05;;;;;;;7.57;5.97;;;13.50;99.90;;;;;;4995201;28;20255;-82
2023/03/18 08:14:31;;;;;;;7.57;6.10;;;13.50;99.90;;;;;;4995231;28;20191;-82
2023/03/18 08:16:56;;;;;;;10.83;5.60;;;13.50;99.90;;;;;;4995197;28;20586;-81
2023/03/18 08:19:22;;;;;;;8.47;4.67;;;13.50;99.90;;;;;;4995096;28;20253;-82
2023/03/18 08:21:47;;;;;;;7.87;5.70;;;13.60;99.90;;;;;;4994825;28;20557;-82
2023/03/18 08:24:13;;;;;;;14.93;6.90;;;13.50;68.20;;;;;;4994628;28;20539;-82
2023/03/18 08:26:39;;;;;;;9.60;6.10;;;13.60;99.90;;;;;;4994892;28;20225;-82
2023/03/18 08:29:05;;;;;;;11.63;6.93;;;13.60;99.90;;;;;;4994864;28;20232;-82
2023/03/18 08:31:30;;;;;;;8.00;6.53;;;13.70;99.90;;;;;;4994793;28;20199;-82
2023/03/18 08:33:57;;;;;;;7.30;6.23;;;13.90;99.90;;;;;;4994791;28;20389;-83
2023/03/18 08:36:22;;;;;;;8.40;5.20;;;13.90;93.60;;;;;;4994791;28;20181;-82
2023/03/18 08:38:48;;;;;;;7.90;5.80;;;14.00;91.80;;;;;;4994166;28;20505;-82
2023/03/18 08:41:15;;;;;;;10.53;7.37;;;14.00;53.60;;;;;;4994368;28;20199;-82
2023/03/18 08:43:41;;;;;;;13.07;6.17;;;14.10;27.20;;;;;;4994626;28;20427;-82
2023/03/18 08:46:07;;;;;;;11.10;6.50;;;14.30;3.00;;;;;;4994548;28;20474;-81
2023/03/18 08:48:33;;;;;;;8.53;6.80;;;14.20;5.40;;;;;;4994595;28;20174;-81
2023/03/18 08:51:02;;;;;;;9.60;6.80;;;14.30;1.00;;;;;;4994580;28;20160;-81
2023/03/18 08:53:27;;;;;;;11.40;6.90;;;14.20;1.00;;;;;;4994106;28;20421;-83
2023/03/18 08:55:53;;;;;;;11.13;6.40;;;14.10;1.00;;;;;;4993134;28;20434;-82
2023/03/18 08:58:18;;;;;;;10.37;6.23;;;14.00;1.00;;;;;;4994428;28;20222;-82
2023/03/18 09:00:44;;;;;;;10.17;7.37;;;14.00;1.00;;;;;;4993008;28;20183;-82
2023/03/18 09:03:10;;;;;;;9.63;7.07;;;14.00;1.00;;;;;;4994328;28;20180;-82
2023/03/18 09:05:36;;;;;;;11.27;5.33;;;13.90;1.00;;;;;;4994191;28;20175;-82
2023/03/18 09:08:12;;;;;;;10.30;6.63;;;13.90;1.00;;;;;;4993874;28;20521;-81
2023/03/18 09:10:38;;;;;;;9.83;6.03;;;13.80;1.00;;;;;;4994434;28;20994;-82
2023/03/18 09:13:04;;;;;;;13.43;6.83;;;13.80;1.00;;;;;;4994186;28;20524;-81
2023/03/18 09:15:30;;;;;;;10.87;6.73;;;13.90;1.00;;;;;;4994117;28;20407;-80
2023/03/18 09:17:55;;;;;;;17.93;7.77;;;13.80;1.00;;;;;;4995596;28;20426;-87
2023/03/18 09:20:21;;;;;;;8.23;6.80;;;13.80;1.00;;;;;;4994219;28;20543;-81
2023/03/18 09:22:46;;;;;;;10.90;6.70;;;13.70;1.00;;;;;;4993578;28;20265;-82
2023/03/18 09:25:12;;;;;;;11.00;6.20;;;13.60;1.00;;;;;;4993970;28;20182;-80
2023/03/18 09:27:38;;;;;;;9.57;7.23;;;13.60;1.00;;;;;;5007341;28;20229;-81
2023/03/18 09:30:04;;;;;;;8.97;5.97;;;13.60;1.00;;;;;;5012130;28;20198;-80
2023/03/18 09:32:30;;;;;;;6.73;5.80;;;13.60;1.00;;;;;;5012835;28;20199;-80
2023/03/18 09:34:55;;;;;;;9.77;7.33;;;13.60;4.10;;;;;;5013287;28;20508;-81
2023/03/18 09:37:21;;;;;;;9.63;5.83;;;13.60;13.20;;;;;;5013023;28;20180;-80
2023/03/18 09:39:47;;;;;;;12.63;6.53;;;13.70;17.30;;;;;;5013326;28;20659;-80
2023/03/18 09:42:36;;;;;;;7.73;4.97;;;13.80;40.80;;;;;;5013331;28;20568;-80
2023/03/18 09:45:11;;;;;;;10.40;5.97;;;14.00;40.10;;;;;;5013015;28;20419;-80
2023/03/18 09:47:55;;;;;;;7.50;5.37;;;14.20;35.70;;;;;;5013108;28;20498;-81
2023/03/18 09:50:52;;;;;;;9.00;6.83;;;14.40;8.30;;;;;;5013329;28;20416;-81
2023/03/18 09:53:39;;;;;;;7.90;5.33;;;14.50;1.00;;;;;;5012033;28;20523;-81
2023/03/18 09:56:09;;;;;;;8.17;5.40;;;14.80;1.00;;;;;;5013253;28;20559;-81
2023/03/18 09:58:55;;;;;;;9.37;4.63;;;14.90;1.00;;;;;;5013089;28;20839;-81
2023/03/18 10:01:24;;;;;;;6.37;4.43;;;15.10;1.00;;;;;;5013106;28;20928;-81
2023/03/18 10:03:59;;;;;;;6.67;4.47;;;15.30;1.00;;;;;;5013181;28;20436;-81
2023/03/18 10:06:25;;;;;;;7.90;4.97;;;15.40;1.00;;;;;;4986482;28;20899;-80
2023/03/18 10:09:05;;;;;;;8.17;4.70;;;15.50;1.00;;;;;;4999041;28;20462;-81
2023/03/18 10:11:34;;;;;;;6.13;4.90;;;15.80;1.00;;;;;;5013039;28;20296;-81
2023/03/18 10:14:26;;;;;;;5.63;3.77;;;16.60;1.00;;;;;;5012873;28;20428;-81
2023/03/18 10:16:51;;;;;;;6.93;3.80;;;17.80;1.00;;;;;;5013081;28;20457;-81
2023/03/18 10:19:18;;;;;;;5.97;4.13;;;18.70;99.90;;;;;;5012940;28;20467;-79
2023/03/18 10:22:00;;;;;;;6.23;2.40;;;19.20;1.00;;;;;;5012664;28;20219;-79
2023/03/18 10:24:32;;;;;;;4.20;3.03;;;19.40;99.90;;;;;;5001345;28;20460;-79
2023/03/18 10:27:15;;;;;;;7.27;4.80;;;19.90;1.00;;;;;;5012599;28;20990;-79
2023/03/18 10:30:02;;;;;;;9.77;4.00;;;20.40;99.90;;;;;;5012119;28;20423;-79
2023/03/18 10:32:34;;;;;;;5.10;3.30;;;20.60;99.90;;;;;;5012581;28;20428;-80
2023/03/18 10:35:25;;;;;;;5.10;3.43;;;20.50;99.90;;;;;;5012759;28;20470;-78
2023/03/18 10:37:54;;;;;;;5.30;2.90;;;20.40;99.90;;;;;;5011161;28;20516;-78
2023/03/18 10:40:22;;;;;;;7.47;3.57;;;19.90;99.90;;;;;;5012371;28;20442;-82
2023/03/18 10:42:51;;;;;;;6.63;4.43;;;19.20;99.90;;;;;;5011052;28;20429;-83
2023/03/18 10:45:28;;;;;;;5.73;3.77;;;18.80;99.90;;;;;;5012902;28;20410;-87
2023/03/18 10:48:11;;;;;;;6.40;4.17;;;18.30;99.90;;;;;;5014530;28;20436;-86
2023/03/18 10:50:42;;;;;;;8.13;4.77;;;17.90;1.00;;;;;;5027302;28;20504;-80
2023/03/18 10:53:54;;;;;;;8.23;5.00;;;17.50;1.00;;;;;;5010713;28;20956;-78
2023/03/18 10:56:21;;;;;;;8.43;6.10;;;17.40;75.80;;;;;;5010903;28;20423;-77
2023/03/18 10:58:47;;;;;;;7.67;4.40;;;17.20;99.90;;;;;;5001553;28;20961;-78
2023/03/18 11:01:15;;;;;;;6.87;5.50;;;16.90;1.00;;;;;;5001687;28;20437;-80
2023/03/18 11:03:49;;;;;;;8.83;7.10;;;16.80;1.00;;;;;;5007820;28;20990;-81
2023/03/18 11:06:49;;;;;;;9.30;7.00;;;16.80;12.20;;;;;;5013760;28;20500;-80
2023/03/18 11:09:20;;;;;;;8.67;7.70;;;16.80;1.00;;;;;;4967439;28;20481;-77
2023/03/18 11:11:55;;;;;;;9.23;6.30;;;17.00;1.00;;;;;;5015767;28;20427;-77
2023/03/18 11:14:27;;;;;;;11.70;6.90;;;17.10;99.90;;;;;;5015732;28;20494;-77
2023/03/18 11:16:59;;;;;;;11.10;7.77;;;17.30;99.90;;;;;;5014459;28;20421;-78
2023/03/18 11:19:30;;;;;;;7.33;5.57;;;17.40;99.90;;;;;;5014474;28;20432;-79
2023/03/18 11:22:09;;;;;;;7.13;5.97;;;17.70;99.90;;;;;;5015073;28;21039;-78
2023/03/18 11:24:43;;;;;;;8.80;5.57;;;18.30;49.60;;;;;;5030926;28;20438;-78
2023/03/18 11:27:24;;;;;;;6.70;5.10;;;19.10;1.00;;;;;;5013872;28;20469;-79
2023/03/18 11:29:56;;;;;;;7.27;5.73;;;20.30;99.90;;;;;;5013729;28;20781;-79
2023/03/18 11:32:29;;;;;;;7.07;4.70;;;21.30;99.90;;;;;;5013148;28;20458;-80
2023/03/18 11:34:57;;;;;;;5.30;4.67;;;22.20;99.90;;;;;;5013976;28;20413;-79
2023/03/18 11:37:31;;;;;;;6.80;4.93;;;23.20;99.90;;;;;;5013630;28;20424;-76
2023/03/18 11:40:12;;;;;;;6.53;4.33;;;24.40;99.90;;;;;;5015369;28;20410;-78
2023/03/18 11:42:39;;;;;;;4.83;3.40;;;25.50;99.90;;;;;;5013946;28;20429;-77
2023/03/18 11:45:35;;;;;;;4.57;3.77;;;26.40;97.50;;;;;;5015288;28;20414;-77
2023/03/18 11:48:05;;;;;;;7.00;3.43;;;26.10;58.70;;;;;;5015346;28;20913;-78
2023/03/18 11:51:01;;;;;;;3.80;2.93;;;26.40;52.80;;;;;;5014187;28;20942;-77
2023/03/18 11:53:36;;;;;;;3.90;3.50;;;26.70;42.20;;;;;;5014577;28;20507;-78
2023/03/18 11:56:10;;;;;;;3.93;2.93;;;26.90;31.30;;;;;;5012957;28;20436;-78
2023/03/18 11:58:56;;;;;;;5.00;3.50;;;27.20;26.90;;;;;;5010314;28;20483;-77
2023/03/18 12:01:29;;;;;;;6.70;3.40;;;27.40;22.40;;;;;;5027514;28;20418;-79
2023/03/18 12:03:57;;;;;;;4.90;2.23;;;27.70;19.60;;;;;;5009304;28;20414;-77
2023/03/18 12:06:27;;;;;;;4.43;2.63;;;27.00;7.80;;;;;;5012172;28;20469;-78
2023/03/18 12:08:58;;;;;;;3.30;2.00;;;26.70;2.00;;;;;;5009367;28;20426;-78
2023/03/18 12:11:37;;;;;;;4.97;2.47;;;26.60;1.00;;;;;;4972008;28;20438;-78
2023/03/18 12:14:32;;;;;;;5.53;2.43;;;26.50;1.00;;;;;;5012270;28;20445;-79
2023/03/18 12:17:20;;;;;;;4.23;2.90;;;27.00;1.00;;;;;;5011450;28;20422;-80
2023/03/18 12:20:03;;;;;;;2.63;2.40;;;27.20;1.00;;;;;;5012559;28;20414;-79
2023/03/18 12:22:44;;;;;;;3.17;2.00;;;27.50;1.00;;;;;;5012704;28;20891;-77
2023/03/18 12:25:44;;;;;;;1.63;1.30;;;28.10;1.00;;;;;;5010536;28;20500;-79
2023/03/18 12:28:13;;;;;;;2.80;1.43;;;28.10;1.00;;;;;;5010369;28;20425;-79
2023/03/18 12:30:52;;;;;;;3.30;1.90;;;27.90;1.00;;;;;;5012887;28;20820;-78
2023/03/18 12:33:17;;;;;;;3.90;1.70;;;27.80;1.00;;;;;;5011049;28;20851;-79
2023/03/18 12:36:16;;;;;;;5.10;1.10;;;28.20;1.00;;;;;;5012494;28;20508;-78
2023/03/18 12:39:32;;;;;;;3.17;1.50;;;28.30;1.00;;;;;;5010427;28;20647;-77
2023/03/18 12:42:08;;;;;;;2.77;1.07;;;28.50;1.00;;;;;;5030434;28;20781;-77
2023/03/18 12:44:56;;;;;;;3.23;1.40;;;28.40;1.00;;;;;;5025605;28;20432;-77
2023/03/18 12:47:27;;;;;;;4.70;1.53;;;28.00;1.00;;;;;;5011856;28;20504;-77
2023/03/18 12:50:11;;;;;;;2.97;1.23;;;27.50;1.00;;;;;;5010609;28;20416;-77
2023/03/18 12:52:45;;;;;;;3.23;2.20;;;27.30;1.00;;;;;;5010620;28;20789;-76
2023/03/18 12:55:28;;;;;;;3.07;1.83;;;26.90;1.00;;;;;;5024677;28;20560;-77
2023/03/18 12:58:13;;;;;;;2.70;1.93;;;26.80;1.00;;;;;;5002790;28;20465;-78
2023/03/18 13:00:46;;;;;;;2.70;1.40;;;26.50;1.00;;;;;;5009393;28;20414;-77
2023/03/18 13:03:32;;;;;;;3.50;1.60;;;26.60;1.00;;;;;;5008699;28;20422;-76
2023/03/18 13:06:17;;;;;;;3.00;1.43;;;26.30;1.00;;;;;;5009584;28;20460;-77
2023/03/18 13:09:04;;;;;;;5.03;1.53;;;26.30;1.00;;;;;;5010995;28;20421;-76